sensor_id;sensor_type;location;lat;lon;timestamp;pressure;altitude;pressure_sealevel;temperature;humidity
71239;BME280;61342;51.442;7.370;2023-03-26T00:00:25;99214.47;;;9.25;100.00
71239;BME280;61342;51.442;7.370;2023-03-26T00:01:27;99223.31;;;9.27;100.00
71239;BME280;61342;51.442;7.370;2023-03-26T00:02:28;99223.31;;;9.27;100.00
71239;BME280;61342;51.442;7.370;2023-03-26T00:03:29;99224.84;;;9.28;100.00
71239;BME280;61342;51.442;7.370;2023-03-26T00:04:29;99221.75;;;9.26;100.00
71239;BME280;61342;51.442;7.370;2023-03-26T00:05:32;99224.63;;;9.26;100.00
71239;BME280;61342;51.442;7.370;2023-03-26T00:06:35;99224.84;;;9.28;100.00
71239;BME280;61342;51.442;7.370;2023-03-26T00:07:37;99217.03;;;9.29;100.00
71239;BME280;61342;51.442;7.370;2023-03-26T00:08:40;99224.84;;;9.28;100.00
71239;BME280;61342;51.442;7.370;2023-03-26T00:09:41;99225.63;;;9.29;100.00
71239;BME280;61342;51.442;7.370;2023-03-26T00:10:42;99227.94;;;9.30;100.00
71239;BME280;61342;51.442;7.370;2023-03-26T00:11:43;99224.84;;;9.28;100.00
71239;BME280;61342;51.442;7.370;2023-03-26T00:12:45;99226.63;;;9.31;100.00
71239;BME280;61342;51.442;7.370;2023-03-26T00:13:46;99229.03;;;9.27;100.00
71239;BME280;61342;51.442;7.370;2023-03-26T00:14:46;99228.16;;;9.32;100.00
71239;BME280;61342;51.442;7.370;2023-03-26T00:15:47;99224.84;;;9.28;100.00
71239;BME280;61342;51.442;7.370;2023-03-26T00:16:47;99226.09;;;9.33;100.00
71239;BME280;61342;51.442;7.370;2023-03-26T00:17:48;99236.00;;;9.32;100.00
71239;BME280;61342;51.442;7.370;2023-03-26T00:18:48;99225.28;;;9.32;100.00
71239;BME280;61342;51.442;7.370;2023-03-26T00:19:50;99220.34;;;9.33;100.00
71239;BME280;61342;51.442;7.370;2023-03-26T00:20:52;99232.03;;;9.35;100.00
71239;BME280;61342;51.442;7.370;2023-03-26T00:21:53;99222.44;;;9.32;100.00
71239;BME280;61342;51.442;7.370;2023-03-26T00:22:53;99218.25;;;9.33;100.00
71239;BME280;61342;51.442;7.370;2023-03-26T00:24:05;99222.13;;;9.36;100.00
71239;BME280;61342;51.442;7.370;2023-03-26T00:25:06;99224.22;;;9.35;100.00
71239;BME280;61342;51.442;7.370;2023-03-26T00:26:07;99224.22;;;9.35;100.00
71239;BME280;61342;51.442;7.370;2023-03-26T00:27:09;99216.38;;;9.36;100.00
71239;BME280;61342;51.442;7.370;2023-03-26T00:28:10;99213.31;;;9.34;100.00
71239;BME280;61342;51.442;7.370;2023-03-26T00:29:10;99222.88;;;9.36;100.00
71239;BME280;61342;51.442;7.370;2023-03-26T00:30:12;99210.88;;;9.38;100.00
71239;BME280;61342;51.442;7.370;2023-03-26T00:31:13;99211.66;;;9.38;100.00
71239;BME280;61342;51.442;7.370;2023-03-26T00:32:14;99212.97;;;9.37;100.00
71239;BME280;61342;51.442;7.370;2023-03-26T00:33:16;99210.09;;;9.37;100.00
71239;BME280;61342;51.442;7.370;2023-03-26T00:34:16;99217.38;;;9.38;100.00
71239;BME280;61342;51.442;7.370;2023-03-26T00:35:17;99210.88;;;9.38;100.00
71239;BME280;61342;51.442;7.370;2023-03-26T00:36:17;99210.09;;;9.37;100.00
71239;BME280;61342;51.442;7.370;2023-03-26T00:37:19;99207.47;;;9.39;100.00
71239;BME280;61342;51.442;7.370;2023-03-26T00:38:20;99211.09;;;9.40;100.00
71239;BME280;61342;51.442;7.370;2023-03-26T00:39:21;99205.66;;;9.36;100.00
71239;BME280;61342;51.442;7.370;2023-03-26T00:40:23;99202.50;;;9.40;100.00
71239;BME280;61342;51.442;7.370;2023-03-26T00:41:24;99210.34;;;9.39;100.00
71239;BME280;61342;51.442;7.370;2023-03-26T00:42:25;99194.00;;;9.34;100.00
71239;BME280;61342;51.442;7.370;2023-03-26T00:43:26;99207.56;;;9.34;100.00
71239;BME280;61342;51.442;7.370;2023-03-26T00:44:33;99202.72;;;9.42;100.00
71239;BME280;61342;51.442;7.370;2023-03-26T00:45:33;99195.19;;;9.39;100.00
71239;BME280;61342;51.442;7.370;2023-03-26T00:46:33;99203.50;;;9.42;100.00
71239;BME280;61342;51.442;7.370;2023-03-26T00:47:35;99198.88;;;9.39;100.00
71239;BME280;61342;51.442;7.370;2023-03-26T00:48:36;99200.63;;;9.42;100.00
71239;BME280;61342;51.442;7.370;2023-03-26T00:49:37;99201.38;;;9.43;100.00
71239;BME280;61342;51.442;7.370;2023-03-26T00:50:39;99193.78;;;9.45;100.00
71239;BME280;61342;51.442;7.370;2023-03-26T00:51:40;99192.47;;;9.46;100.00
71239;BME280;61342;51.442;7.370;2023-03-26T00:52:44;99188.06;;;9.45;100.00
71239;BME280;61342;51.442;7.370;2023-03-26T00:53:46;99189.06;;;9.48;100.00
71239;BME280;61342;51.442;7.370;2023-03-26T00:54:49;99193.03;;;9.45;100.00
71239;BME280;61342;51.442;7.370;2023-03-26T00:55:50;99195.34;;;9.46;100.00
71239;BME280;61342;51.442;7.370;2023-03-26T00:56:50;99192.47;;;9.46;100.00
71239;BME280;61342;51.442;7.370;2023-03-26T00:57:54;99197.09;;;9.49;100.00
71239;BME280;61342;51.442;7.370;2023-03-26T00:58:55;99193.47;;;9.49;100.00
71239;BME280;61342;51.442;7.370;2023-03-26T00:59:56;99199.41;;;9.51;100.00
71239;BME280;61342;51.442;7.370;2023-03-26T01:00:59;99190.81;;;9.51;100.00
71239;BME280;61342;51.442;7.370;2023-03-26T01:02:02;99184.88;;;9.49;100.00
71239;BME280;61342;51.442;7.370;2023-03-26T01:03:04;99195.25;;;9.52;100.00
71239;BME280;61342;51.442;7.370;2023-03-26T01:04:26;99191.91;;;9.48;100.00
71239;BME280;61342;51.442;7.370;2023-03-26T01:06:37;99184.56;;;9.52;100.00
71239;BME280;61342;51.442;7.370;2023-03-26T01:07:40;99188.75;;;9.51;100.00
71239;BME280;61342;51.442;7.370;2023-03-26T01:08:44;99176.72;;;9.53;100.00
71239;BME280;61342;51.442;7.370;2023-03-26T01:09:46;99183.22;;;9.53;100.00
71239;BME280;61342;51.442;7.370;2023-03-26T01:10:49;99180.34;;;9.53;100.00
71239;BME280;61342;51.442;7.370;2023-03-26T01:11:50;99168.88;;;9.53;100.00
71239;BME280;61342;51.442;7.370;2023-03-26T01:12:51;99176.72;;;9.53;100.00
71239;BME280;61342;51.442;7.370;2023-03-26T01:13:56;99179.03;;;9.54;100.00
71239;BME280;61342;51.442;7.370;2023-03-26T01:14:58;99178.47;;;9.56;100.00
71239;BME280;61342;51.442;7.370;2023-03-26T01:16:00;99173.53;;;9.56;100.00
71239;BME280;61342;51.442;7.370;2023-03-26T01:17:03;99180.78;;;9.57;100.00
71239;BME280;61342;51.442;7.370;2023-03-26T01:18:05;99170.44;;;9.54;100.00
71239;BME280;61342;51.442;7.370;2023-03-26T01:19:23;99171.97;;;9.55;100.00
71239;BME280;61342;51.442;7.370;2023-03-26T01:20:25;99163.38;;;9.55;100.00
71239;BME280;61342;51.442;7.370;2023-03-26T01:21:29;99159.19;;;9.56;100.00
71239;BME280;61342;51.442;7.370;2023-03-26T01:22:29;99168.00;;;9.58;100.00
71239;BME280;61342;51.442;7.370;2023-03-26T01:23:41;99168.56;;;9.57;100.00
71239;BME280;61342;51.442;7.370;2023-03-26T01:24:42;99162.06;;;9.56;100.00
71239;BME280;61342;51.442;7.370;2023-03-26T01:25:55;99161.50;;;9.58;100.00
71239;BME280;61342;51.442;7.370;2023-03-26T01:28:26;99170.88;;;9.58;100.00
71239;BME280;61342;51.442;7.370;2023-03-26T01:30:41;99165.56;;;9.62;100.00
71239;BME280;61342;51.442;7.370;2023-03-26T01:32:32;99162.16;;;9.64;100.00
71239;BME280;61342;51.442;7.370;2023-03-26T01:36:31;99160.72;;;9.57;100.00
71239;BME280;61342;51.442;7.370;2023-03-26T01:39:21;99159.41;;;9.58;100.00
71239;BME280;61342;51.442;7.370;2023-03-26T01:40:33;99164.94;;;9.56;100.00
71239;BME280;61342;51.442;7.370;2023-03-26T01:41:46;99154.53;;;9.53;100.00
71239;BME280;61342;51.442;7.370;2023-03-26T01:43:00;99153.44;;;9.56;100.00
71239;BME280;61342;51.442;7.370;2023-03-26T01:44:10;99157.63;;;9.55;100.00
71239;BME280;61342;51.442;7.370;2023-03-26T01:45:20;99162.06;;;9.56;100.00
71239;BME280;61342;51.442;7.370;2023-03-26T01:46:22;99162.56;;;9.55;100.00
71239;BME280;61342;51.442;7.370;2023-03-26T01:47:24;99156.31;;;9.56;100.00
71239;BME280;61342;51.442;7.370;2023-03-26T01:48:30;99153.22;;;9.54;100.00
71239;BME280;61342;51.442;7.370;2023-03-26T01:49:32;99148.78;;;9.53;100.00
71239;BME280;61342;51.442;7.370;2023-03-26T01:50:32;99142.75;;;9.57;100.00
71239;BME280;61342;51.442;7.370;2023-03-26T01:51:34;99150.59;;;9.56;100.00
71239;BME280;61342;51.442;7.370;2023-03-26T01:52:35;99137.31;;;9.53;100.00
71239;BME280;61342;51.442;7.370;2023-03-26T01:53:44;99148.47;;;9.57;100.00
71239;BME280;61342;51.442;7.370;2023-03-26T01:54:46;99143.28;;;9.55;100.00
71239;BME280;61342;51.442;7.370;2023-03-26T01:57:25;99146.38;;;9.57;100.00
71239;BME280;61342;51.442;7.370;2023-03-26T01:58:51;99131.56;;;9.53;100.00
71239;BME280;61342;51.442;7.370;2023-03-26T02:03:48;99133.13;;;9.54;100.00
71239;BME280;61342;51.442;7.370;2023-03-26T02:08:12;99131.03;;;9.55;100.00
71239;BME280;61342;51.442;7.370;2023-03-26T02:09:19;99136.00;;;9.54;100.00
71239;BME280;61342;51.442;7.370;2023-03-26T02:10:35;99126.63;;;9.54;100.00
71239;BME280;61342;51.442;7.370;2023-03-26T02:11:39;99123.22;;;9.55;100.00
71239;BME280;61342;51.442;7.370;2023-03-26T02:12:42;99124.75;;;9.56;100.00
71239;BME280;61342;51.442;7.370;2023-03-26T02:13:44;99128.41;;;9.57;100.00
71239;BME280;61342;51.442;7.370;2023-03-26T02:14:45;99126.28;;;9.57;100.00
71239;BME280;61342;51.442;7.370;2023-03-26T02:16:00;99115.47;;;9.50;100.00
71239;BME280;61342;51.442;7.370;2023-03-26T02:17:01;99118.22;;;9.56;100.00
71239;BME280;61342;51.442;7.370;2023-03-26T02:18:01;99114.06;;;9.57;100.00
71239;BME280;61342;51.442;7.370;2023-03-26T02:19:03;99119.78;;;9.57;100.00
71239;BME280;61342;51.442;7.370;2023-03-26T02:20:05;99111.19;;;9.57;100.00
71239;BME280;61342;51.442;7.370;2023-03-26T02:21:18;99112.84;;;9.52;100.00
71239;BME280;61342;51.442;7.370;2023-03-26T02:22:20;99109.06;;;9.57;100.00
71239;BME280;61342;51.442;7.370;2023-03-26T02:23:21;99111.94;;;9.57;100.00
71239;BME280;61342;51.442;7.370;2023-03-26T02:24:21;99108.31;;;9.57;100.00
71239;BME280;61342;51.442;7.370;2023-03-26T02:25:22;99110.63;;;9.58;100.00
71239;BME280;61342;51.442;7.370;2023-03-26T02:26:23;99111.38;;;9.59;100.00
71239;BME280;61342;51.442;7.370;2023-03-26T02:27:23;99109.88;;;9.58;100.00
71239;BME280;61342;51.442;7.370;2023-03-26T02:28:24;99102.56;;;9.57;100.00
71239;BME280;61342;51.442;7.370;2023-03-26T02:29:24;99096.41;;;9.53;100.00
71239;BME280;61342;51.442;7.370;2023-03-26T02:30:25;99109.31;;;9.59;100.00
71239;BME280;61342;51.442;7.370;2023-03-26T02:31:26;99103.56;;;9.59;100.00
71239;BME280;61342;51.442;7.370;2023-03-26T02:32:26;99104.13;;;9.58;100.00
71239;BME280;61342;51.442;7.370;2023-03-26T02:33:28;99099.38;;;9.60;100.00
71239;BME280;61342;51.442;7.370;2023-03-26T02:34:28;99102.25;;;9.60;100.00
71239;BME280;61342;51.442;7.370;2023-03-26T02:35:28;99100.72;;;9.59;100.00
71239;BME280;61342;51.442;7.370;2023-03-26T02:36:29;99089.78;;;9.58;100.00
71239;BME280;61342;51.442;7.370;2023-03-26T02:37:30;99095.16;;;9.61;100.00
71239;BME280;61342;51.442;7.370;2023-03-26T02:38:33;99089.44;;;9.61;100.00
71239;BME280;61342;51.442;7.370;2023-03-26T02:39:34;99082.69;;;9.59;100.00
71239;BME280;61342;51.442;7.370;2023-03-26T02:40:34;99085.56;;;9.59;100.00
71239;BME280;61342;51.442;7.370;2023-03-26T02:41:35;99088.13;;;9.62;100.00
71239;BME280;61342;51.442;7.370;2023-03-26T02:42:37;99088.88;;;9.63;100.00
71239;BME280;61342;51.442;7.370;2023-03-26T02:43:37;99088.13;;;9.62;100.00
71239;BME280;61342;51.442;7.370;2023-03-26T02:44:38;99084.25;;;9.60;100.00
71239;BME280;61342;51.442;7.370;2023-03-26T02:45:39;99086.25;;;9.65;100.00
71239;BME280;61342;51.442;7.370;2023-03-26T02:46:39;99088.88;;;9.63;100.00
71239;BME280;61342;51.442;7.370;2023-03-26T02:47:40;99087.34;;;9.62;100.00
71239;BME280;61342;51.442;7.370;2023-03-26T02:48:40;99085.81;;;9.61;100.00
71239;BME280;61342;51.442;7.370;2023-03-26T02:49:41;99084.69;;;9.64;100.00
71239;BME280;61342;51.442;7.370;2023-03-26T02:50:42;99089.13;;;9.65;100.00
71239;BME280;61342;51.442;7.370;2023-03-26T02:51:43;99085.47;;;9.64;100.00
71239;BME280;61342;51.442;7.370;2023-03-26T02:52:43;99085.25;;;9.62;100.00
71239;BME280;61342;51.442;7.370;2023-03-26T02:53:44;99089.66;;;9.63;100.00
71239;BME280;61342;51.442;7.370;2023-03-26T02:54:44;99080.63;;;9.59;100.00
71239;BME280;61342;51.442;7.370;2023-03-26T02:55:45;99076.44;;;9.60;100.00
71239;BME280;61342;51.442;7.370;2023-03-26T02:56:45;99078.19;;;9.63;100.00
71239;BME280;61342;51.442;7.370;2023-03-26T02:57:45;99077.41;;;9.63;100.00
71239;BME280;61342;51.442;7.370;2023-03-26T02:58:46;99079.75;;;9.64;100.00
71239;BME280;61342;51.442;7.370;2023-03-26T02:59:46;99080.50;;;9.65;100.00
71239;BME280;61342;51.442;7.370;2023-03-26T03:00:50;99078.19;;;9.63;100.00
71239;BME280;61342;51.442;7.370;2023-03-26T03:01:53;99068.28;;;9.64;100.00
71239;BME280;61342;51.442;7.370;2023-03-26T03:02:54;99058.56;;;9.54;100.00
71239;BME280;61342;51.442;7.370;2023-03-26T03:03:56;99073.22;;;9.64;100.00
71239;BME280;61342;51.442;7.370;2023-03-26T03:04:57;99070.34;;;9.64;100.00
71239;BME280;61342;51.442;7.370;2023-03-26T03:06:00;99068.28;;;9.64;100.00
71239;BME280;61342;51.442;7.370;2023-03-26T03:07:01;99064.84;;;9.66;100.00
71239;BME280;61342;51.442;7.370;2023-03-26T03:08:01;99065.59;;;9.66;100.00
71239;BME280;61342;51.442;7.370;2023-03-26T03:09:04;99067.16;;;9.67;100.00
71239;BME280;61342;51.442;7.370;2023-03-26T03:10:06;99066.72;;;9.63;100.00
71239;BME280;61342;51.442;7.370;2023-03-26T03:11:12;99062.19;;;9.68;100.00
71239;BME280;61342;51.442;7.370;2023-03-26T03:12:12;99063.72;;;9.69;100.00
71239;BME280;61342;51.442;7.370;2023-03-26T03:13:13;99056.78;;;9.64;100.00
71239;BME280;61342;51.442;7.370;2023-03-26T03:14:14;99054.13;;;9.66;100.00
71239;BME280;61342;51.442;7.370;2023-03-26T03:15:14;99052.81;;;9.67;100.00
71239;BME280;61342;51.442;7.370;2023-03-26T03:16:15;99049.72;;;9.65;100.00
71239;BME280;61342;51.442;7.370;2023-03-26T03:17:15;99056.44;;;9.68;100.00
71239;BME280;61342;51.442;7.370;2023-03-26T03:18:16;99045.75;;;9.68;100.00
71239;BME280;61342;51.442;7.370;2023-03-26T03:19:16;99040.34;;;9.65;100.00
71239;BME280;61342;51.442;7.370;2023-03-26T03:20:17;99036.16;;;9.66;100.00
71239;BME280;61342;51.442;7.370;2023-03-26T03:21:17;99028.88;;;9.65;100.00
71239;BME280;61342;51.442;7.370;2023-03-26T03:22:18;99032.50;;;9.65;100.00
71239;BME280;61342;51.442;7.370;2023-03-26T03:23:19;99028.09;;;9.64;100.00
71239;BME280;61342;51.442;7.370;2023-03-26T03:24:20;99028.88;;;9.65;100.00
71239;BME280;61342;51.442;7.370;2023-03-26T03:25:20;99028.88;;;9.65;100.00
71239;BME280;61342;51.442;7.370;2023-03-26T03:26:22;99028.09;;;9.64;100.00
71239;BME280;61342;51.442;7.370;2023-03-26T03:27:27;99029.63;;;9.65;100.00
71239;BME280;61342;51.442;7.370;2023-03-26T03:28:27;99030.97;;;9.64;100.00
71239;BME280;61342;51.442;7.370;2023-03-26T03:29:27;99020.81;;;9.63;100.00
71239;BME280;61342;51.442;7.370;2023-03-26T03:30:28;99026.56;;;9.63;100.00
71239;BME280;61342;51.442;7.370;2023-03-26T03:31:28;99021.38;;;9.62;100.00
71239;BME280;61342;51.442;7.370;2023-03-26T03:32:28;99024.81;;;9.60;100.00
71239;BME280;61342;51.442;7.370;2023-03-26T03:33:29;99020.59;;;9.61;100.00
71239;BME280;61342;51.442;7.370;2023-03-26T03:34:29;99023.44;;;9.61;100.00
71239;BME280;61342;51.442;7.370;2023-03-26T03:35:30;99024.00;;;9.60;100.00
71239;BME280;61342;51.442;7.370;2023-03-26T03:36:31;99017.06;;;9.55;100.00
71239;BME280;61342;51.442;7.370;2023-03-26T03:37:32;99014.22;;;9.55;100.00
71239;BME280;61342;51.442;7.370;2023-03-26T03:38:32;99018.06;;;9.58;100.00
71239;BME280;61342;51.442;7.370;2023-03-26T03:39:33;99021.69;;;9.58;100.00
71239;BME280;61342;51.442;7.370;2023-03-26T03:40:33;99016.53;;;9.57;100.00
71239;BME280;61342;51.442;7.370;2023-03-26T03:41:33;99014.84;;;9.48;100.00
71239;BME280;61342;51.442;7.370;2023-03-26T03:42:34;99021.50;;;9.56;100.00
71239;BME280;61342;51.442;7.370;2023-03-26T03:43:34;99012.66;;;9.54;100.00
71239;BME280;61342;51.442;7.370;2023-03-26T03:44:34;99016.28;;;9.55;100.00
71239;BME280;61342;51.442;7.370;2023-03-26T03:45:35;99015.53;;;9.54;100.00
71239;BME280;61342;51.442;7.370;2023-03-26T03:46:35;99014.53;;;9.52;100.00
71239;BME280;61342;51.442;7.370;2023-03-26T03:47:35;99009.59;;;9.52;100.00
71239;BME280;61342;51.442;7.370;2023-03-26T03:48:36;99020.81;;;9.50;100.00
71239;BME280;61342;51.442;7.370;2023-03-26T03:49:40;99010.13;;;9.51;100.00
71239;BME280;61342;51.442;7.370;2023-03-26T03:50:40;99019.28;;;9.49;100.00
71239;BME280;61342;51.442;7.370;2023-03-26T03:51:41;99016.41;;;9.49;100.00
71239;BME280;61342;51.442;7.370;2023-03-26T03:52:41;99014.84;;;9.48;100.00
71239;BME280;61342;51.442;7.370;2023-03-26T03:53:41;99009.13;;;9.48;100.00
71239;BME280;61342;51.442;7.370;2023-03-26T03:54:42;99018.50;;;9.49;100.00
71239;BME280;61342;51.442;7.370;2023-03-26T03:55:43;99009.91;;;9.49;100.00
71239;BME280;61342;51.442;7.370;2023-03-26T03:56:51;99016.41;;;9.49;100.00
71239;BME280;61342;51.442;7.370;2023-03-26T03:57:53;99006.03;;;9.46;100.00
71239;BME280;61342;51.442;7.370;2023-03-26T03:58:53;99014.84;;;9.48;100.00
71239;BME280;61342;51.442;7.370;2023-03-26T03:59:53;99011.78;;;9.46;100.00
71239;BME280;61342;51.442;7.370;2023-03-26T04:00:57;99010.03;;;9.43;100.00
71239;BME280;61342;51.442;7.370;2023-03-26T04:01:59;99004.50;;;9.45;100.00
71239;BME280;61342;51.442;7.370;2023-03-26T04:03:00;99012.53;;;9.47;100.00
71239;BME280;61342;51.442;7.370;2023-03-26T04:04:05;99016.97;;;9.48;100.00
71239;BME280;61342;51.442;7.370;2023-03-26T04:05:05;99012.78;;;9.49;100.00
71239;BME280;61342;51.442;7.370;2023-03-26T04:06:06;99014.84;;;9.48;100.00
71239;BME280;61342;51.442;7.370;2023-03-26T04:07:07;99011.22;;;9.48;100.00
71239;BME280;61342;51.442;7.370;2023-03-26T04:08:07;99001.84;;;9.47;100.00
71239;BME280;61342;51.442;7.370;2023-03-26T04:09:07;99010.66;;;9.49;100.00
71239;BME280;61342;51.442;7.370;2023-03-26T04:10:12;99001.84;;;9.47;100.00
71239;BME280;61342;51.442;7.370;2023-03-26T04:11:13;98995.56;;;9.49;100.00
71239;BME280;61342;51.442;7.370;2023-03-26T04:12:14;98997.13;;;9.50;100.00
71239;BME280;61342;51.442;7.370;2023-03-26T04:13:14;99003.84;;;9.52;100.00
71239;BME280;61342;51.442;7.370;2023-03-26T04:14:15;99000.97;;;9.52;100.00
71239;BME280;61342;51.442;7.370;2023-03-26T04:15:15;98995.25;;;9.52;100.00
71239;BME280;61342;51.442;7.370;2023-03-26T04:16:16;98996.22;;;9.55;100.00
71239;BME280;61342;51.442;7.370;2023-03-26T04:17:16;98987.41;;;9.53;100.00
71239;BME280;61342;51.442;7.370;2023-03-26T04:18:16;98996.00;;;9.53;100.00
71239;BME280;61342;51.442;7.370;2023-03-26T04:19:17;98993.56;;;9.57;100.00
71239;BME280;61342;51.442;7.370;2023-03-26T04:20:17;98992.81;;;9.56;100.00
71239;BME280;61342;51.442;7.370;2023-03-26T04:21:18;98984.97;;;9.57;100.00
71239;BME280;61342;51.442;7.370;2023-03-26T04:22:19;98988.59;;;9.57;100.00
71239;BME280;61342;51.442;7.370;2023-03-26T04:23:20;98976.91;;;9.55;100.00
71239;BME280;61342;51.442;7.370;2023-03-26T04:24:21;98981.78;;;9.60;100.00
71239;BME280;61342;51.442;7.370;2023-03-26T04:25:23;98979.66;;;9.61;100.00
71239;BME280;61342;51.442;7.370;2023-03-26T04:26:29;98979.09;;;9.62;100.00
71239;BME280;61342;51.442;7.370;2023-03-26T04:27:31;98972.59;;;9.62;100.00
71239;BME280;61342;51.442;7.370;2023-03-26T04:28:44;98971.25;;;9.63;100.00
71239;BME280;61342;51.442;7.370;2023-03-26T04:29:48;98971.25;;;9.63;100.00
71239;BME280;61342;51.442;7.370;2023-03-26T04:30:48;98964.56;;;9.60;100.00
71239;BME280;61342;51.442;7.370;2023-03-26T04:31:55;98961.13;;;9.62;100.00
71239;BME280;61342;51.442;7.370;2023-03-26T04:33:05;98958.81;;;9.60;100.00
71239;BME280;61342;51.442;7.370;2023-03-26T04:34:08;98954.84;;;9.63;100.00
71239;BME280;61342;51.442;7.370;2023-03-26T04:35:14;98958.47;;;9.64;100.00
71239;BME280;61342;51.442;7.370;2023-03-26T04:36:16;98954.84;;;9.63;100.00
71239;BME280;61342;51.442;7.370;2023-03-26T04:37:40;98955.38;;;9.62;100.00
71239;BME280;61342;51.442;7.370;2023-03-26T04:38:45;98957.69;;;9.63;100.00
71239;BME280;61342;51.442;7.370;2023-03-26T04:39:48;98955.03;;;9.65;100.00
71239;BME280;61342;51.442;7.370;2023-03-26T04:40:49;98947.78;;;9.64;100.00
71239;BME280;61342;51.442;7.370;2023-03-26T04:41:49;98944.91;;;9.64;100.00
71239;BME280;61342;51.442;7.370;2023-03-26T04:42:50;98945.09;;;9.66;100.00
71239;BME280;61342;51.442;7.370;2023-03-26T04:43:53;98946.66;;;9.67;100.00
71239;BME280;61342;51.442;7.370;2023-03-26T04:44:54;98937.81;;;9.65;100.00
71239;BME280;61342;51.442;7.370;2023-03-26T04:45:55;98950.28;;;9.68;100.00
71239;BME280;61342;51.442;7.370;2023-03-26T04:46:55;98936.31;;;9.64;100.00
71239;BME280;61342;51.442;7.370;2023-03-26T04:47:56;98933.88;;;9.68;100.00
71239;BME280;61342;51.442;7.370;2023-03-26T04:48:57;98937.81;;;9.65;100.00
71239;BME280;61342;51.442;7.370;2023-03-26T04:49:57;98929.44;;;9.67;100.00
71239;BME280;61342;51.442;7.370;2023-03-26T04:50:57;98924.81;;;9.64;100.00
71239;BME280;61342;51.442;7.370;2023-03-26T04:51:58;98928.66;;;9.67;100.00
71239;BME280;61342;51.442;7.370;2023-03-26T04:52:59;98927.91;;;9.66;100.00
71239;BME280;61342;51.442;7.370;2023-03-26T04:54:00;98930.19;;;9.68;100.00
71239;BME280;61342;51.442;7.370;2023-03-26T04:55:02;98931.00;;;9.68;100.00
71239;BME280;61342;51.442;7.370;2023-03-26T04:57:32;98919.63;;;9.63;100.00
71239;BME280;61342;51.442;7.370;2023-03-26T04:58:36;98918.28;;;9.64;100.00
71239;BME280;61342;51.442;7.370;2023-03-26T04:59:37;98918.28;;;9.64;100.00
71239;BME280;61342;51.442;7.370;2023-03-26T05:00:40;98919.09;;;9.64;100.00
71239;BME280;61342;51.442;7.370;2023-03-26T05:01:41;98921.41;;;9.66;100.00
71239;BME280;61342;51.442;7.370;2023-03-26T05:02:45;98919.09;;;9.64;100.00
71239;BME280;61342;51.442;7.370;2023-03-26T05:03:49;98920.41;;;9.63;100.00
71239;BME280;61342;51.442;7.370;2023-03-26T05:04:49;98911.38;;;9.59;100.00
71239;BME280;61342;51.442;7.370;2023-03-26T05:05:50;98913.69;;;9.61;100.00
71239;BME280;61342;51.442;7.370;2023-03-26T05:06:51;98920.41;;;9.63;100.00
71239;BME280;61342;51.442;7.370;2023-03-26T05:07:52;98909.50;;;9.62;100.00
71239;BME280;61342;51.442;7.370;2023-03-26T05:08:53;98917.53;;;9.63;100.00
71239;BME280;61342;51.442;7.370;2023-03-26T05:09:54;98912.13;;;9.60;100.00
71239;BME280;61342;51.442;7.370;2023-03-26T05:10:56;98910.06;;;9.60;100.00
71239;BME280;61342;51.442;7.370;2023-03-26T05:11:56;98912.69;;;9.58;100.00
71239;BME280;61342;51.442;7.370;2023-03-26T05:12:57;98914.44;;;9.61;100.00
71239;BME280;61342;51.442;7.370;2023-03-26T05:13:57;98913.69;;;9.61;100.00
71239;BME280;61342;51.442;7.370;2023-03-26T05:14:58;98917.31;;;9.61;100.00
71239;BME280;61342;51.442;7.370;2023-03-26T05:15:58;98915.56;;;9.58;100.00
71239;BME280;61342;51.442;7.370;2023-03-26T05:16:59;98910.06;;;9.60;100.00
71239;BME280;61342;51.442;7.370;2023-03-26T05:18:00;98898.56;;;9.60;100.00
71239;BME280;61342;51.442;7.370;2023-03-26T05:19:00;98907.94;;;9.61;100.00
71239;BME280;61342;51.442;7.370;2023-03-26T05:20:01;98902.97;;;9.61;100.00
71239;BME280;61342;51.442;7.370;2023-03-26T05:21:02;98902.22;;;9.61;100.00
71239;BME280;61342;51.442;7.370;2023-03-26T05:22:02;98904.31;;;9.60;100.00
71239;BME280;61342;51.442;7.370;2023-03-26T05:23:02;98896.47;;;9.61;100.00
71239;BME280;61342;51.442;7.370;2023-03-26T05:24:03;98898.78;;;9.62;100.00
71239;BME280;61342;51.442;7.370;2023-03-26T05:25:05;98891.28;;;9.59;100.00
71239;BME280;61342;51.442;7.370;2023-03-26T05:26:08;98898.03;;;9.62;100.00
71239;BME280;61342;51.442;7.370;2023-03-26T05:27:16;98881.91;;;9.59;100.00
71239;BME280;61342;51.442;7.370;2023-03-26T05:28:16;98898.78;;;9.62;100.00
71239;BME280;61342;51.442;7.370;2023-03-26T05:29:19;98897.22;;;9.61;100.00
71239;BME280;61342;51.442;7.370;2023-03-26T05:30:21;98899.53;;;9.63;100.00
71239;BME280;61342;51.442;7.370;2023-03-26T05:31:22;98894.34;;;9.61;100.00
71239;BME280;61342;51.442;7.370;2023-03-26T05:32:22;98894.34;;;9.61;100.00
71239;BME280;61342;51.442;7.370;2023-03-26T05:33:22;98885.75;;;9.61;100.00
71239;BME280;61342;51.442;7.370;2023-03-26T05:34:23;98882.88;;;9.61;100.00
71239;BME280;61342;51.442;7.370;2023-03-26T05:35:25;98878.25;;;9.58;100.00
71239;BME280;61342;51.442;7.370;2023-03-26T05:36:25;98875.63;;;9.60;100.00
71239;BME280;61342;51.442;7.370;2023-03-26T05:37:28;98875.63;;;9.60;100.00
71239;BME280;61342;51.442;7.370;2023-03-26T05:38:30;98878.69;;;9.62;100.00
71239;BME280;61342;51.442;7.370;2023-03-26T05:39:31;98875.41;;;9.58;100.00
71239;BME280;61342;51.442;7.370;2023-03-26T05:40:32;98871.22;;;9.59;100.00
71239;BME280;61342;51.442;7.370;2023-03-26T05:41:32;98874.28;;;9.61;100.00
71239;BME280;61342;51.442;7.370;2023-03-26T05:42:32;98870.09;;;9.62;100.00
71239;BME280;61342;51.442;7.370;2023-03-26T05:43:33;98870.09;;;9.62;100.00
71239;BME280;61342;51.442;7.370;2023-03-26T05:44:34;98862.19;;;9.55;100.00
71239;BME280;61342;51.442;7.370;2023-03-26T05:45:34;98863.94;;;9.58;100.00
71239;BME280;61342;51.442;7.370;2023-03-26T05:46:35;98864.34;;;9.62;100.00
71239;BME280;61342;51.442;7.370;2023-03-26T05:47:35;98867.03;;;9.60;100.00
71239;BME280;61342;51.442;7.370;2023-03-26T05:48:36;98857.06;;;9.61;100.00